首页
METAR-TAF:

METAR-TAF

机场 :

门兴格拉德巴赫, 德国

纬度: 51-13-49N, 经度: 006-30-16E, 海拔: 38米

当前天气观测

该预报发布于36分钟前的17:20 UTC
风速9节,风向南转西南
温度 8°C
湿度 71%
气压 1025 hPa
能见度10公里或以上
散云层高于3900英尺
多云层高于4800英尺

METAR: EDLN 211720Z 21009KT 9999 SCT039 BKN048 08/03 Q1025

时间: 18:56 (17:56 UTC)

预报

该预报发布于3小时和56分钟前的14:00 UTC
预报有效从21日的 15点(UTC)到 21日的 24点(UTC)
风速11节,风向西南
能见度10公里或以上
散云层高于3000英尺

TAF: EDLN 211400Z 2115/2124 23011KT 9999 SCT030

超过4000个机场的气象观测和天气预报(METAR&TAF报告)。

可查询的气象台以黄色和红色小点在地图上表示。

将鼠标移到小点上方,可查看气象台名称。

然后点击查看天气观测和预报。

如需切换地图:点击带黑十字的绿色按钮放大地图;点击带横线的绿色按钮缩小地图;或者点击绿色箭头查看邻近地区的地图。


METAR-TAF: